createdAt,value
2023-06-04T00:00:55.087Z,102465.91
2023-06-04T00:03:21.678Z,102477.00
2023-06-04T00:05:48.303Z,102474.72
2023-06-04T00:08:15.008Z,102453.53
2023-06-04T00:10:41.697Z,102469.25
2023-06-04T00:13:08.198Z,102467.88
2023-06-04T00:15:34.697Z,102466.56
2023-06-04T00:18:01.218Z,102476.06
2023-06-04T00:20:27.701Z,102473.97
2023-06-04T00:22:54.159Z,102476.94
2023-06-04T00:25:20.612Z,102469.38
2023-06-04T00:27:47.131Z,102442.38
2023-06-04T00:30:14.319Z,102465.84
2023-06-04T00:32:41.383Z,102465.16
2023-06-04T00:35:08.490Z,102465.03
2023-06-04T00:37:34.982Z,102463.94
2023-06-04T00:40:01.694Z,102438.44
2023-06-04T00:42:28.157Z,102462.09
2023-06-04T00:44:55.227Z,102464.34
2023-06-04T00:47:22.095Z,102457.25
2023-06-04T00:49:48.682Z,102453.97
2023-06-04T00:52:16.821Z,102463.50
2023-06-04T00:54:43.857Z,102458.69
2023-06-04T00:57:10.323Z,102437.78
2023-06-04T00:59:41.346Z,102427.41
2023-06-04T01:02:15.774Z,102459.44
2023-06-04T01:05:17.975Z,102463.41
2023-06-04T01:07:47.840Z,102453.78
2023-06-04T01:10:15.196Z,102475.56
2023-06-04T01:12:42.305Z,102454.91
2023-06-04T01:15:09.815Z,102460.00
2023-06-04T01:17:47.994Z,102478.44
2023-06-04T01:20:37.347Z,102473.03
2023-06-04T01:23:20.253Z,102435.78
2023-06-04T01:25:50.627Z,102473.31
2023-06-04T01:28:18.231Z,102467.41
2023-06-04T01:30:47.229Z,102465.97
2023-06-04T01:33:16.202Z,102469.78
2023-06-04T01:35:42.914Z,102461.28
2023-06-04T01:38:09.813Z,102472.34
2023-06-04T01:40:36.657Z,102469.94
2023-06-04T01:43:03.649Z,102464.41
2023-06-04T01:45:30.691Z,102465.41
2023-06-04T01:47:57.719Z,102464.81
2023-06-04T01:50:24.487Z,102447.84
2023-06-04T01:52:51.195Z,102463.41
2023-06-04T01:55:18.276Z,102463.97
2023-06-04T01:57:46.097Z,102445.69
2023-06-04T02:00:13.309Z,102458.03
2023-06-04T02:02:42.794Z,102456.06
2023-06-04T02:05:10.400Z,102454.22
2023-06-04T02:07:39.689Z,102441.69
2023-06-04T02:10:14.015Z,102459.59
2023-06-04T02:12:42.168Z,102455.78
2023-06-04T02:15:11.604Z,102457.47
2023-06-04T02:17:43.890Z,102465.69
2023-06-04T02:20:11.125Z,102459.75
2023-06-04T02:22:37.870Z,102466.41
2023-06-04T02:25:05.745Z,102461.44
2023-06-04T02:27:32.275Z,102462.44
2023-06-04T02:29:58.771Z,102459.47
2023-06-04T02:32:25.910Z,102465.28
2023-06-04T02:34:52.456Z,102459.44
2023-06-04T02:37:19.068Z,102462.31
2023-06-04T02:39:45.583Z,102458.34
2023-06-04T02:42:12.048Z,102462.09
2023-06-04T02:44:38.541Z,102465.94
2023-06-04T02:47:05.477Z,102452.91
2023-06-04T02:49:32.011Z,102468.91
2023-06-04T02:51:58.591Z,102461.31
2023-06-04T02:54:25.173Z,102465.78
2023-06-04T02:56:52.437Z,102466.22
2023-06-04T02:59:19.058Z,102459.16
2023-06-04T03:01:45.988Z,102436.19
2023-06-04T03:04:16.760Z,102460.00
2023-06-04T03:06:47.369Z,102456.00
2023-06-04T03:09:14.752Z,102461.84
2023-06-04T03:11:41.552Z,102459.28
2023-06-04T03:14:08.089Z,102461.09
2023-06-04T03:16:34.577Z,102451.75
2023-06-04T03:19:01.075Z,102455.72
2023-06-04T03:21:29.996Z,102445.41
2023-06-04T03:23:56.819Z,102452.59
2023-06-04T03:26:23.501Z,102459.97
2023-06-04T03:28:50.043Z,102460.25
2023-06-04T03:31:16.566Z,102455.72
2023-06-04T03:33:43.100Z,102461.97
2023-06-04T03:36:09.624Z,102457.72
2023-06-04T03:38:36.276Z,102464.09
2023-06-04T03:41:02.712Z,102459.72
2023-06-04T03:43:29.262Z,102462.53
2023-06-04T03:45:55.738Z,102453.72
2023-06-04T03:48:22.560Z,102454.88
2023-06-04T03:50:50.525Z,102462.53
2023-06-04T03:53:17.100Z,102465.09
2023-06-04T03:55:43.577Z,102452.16
2023-06-04T03:58:12.411Z,102462.94
2023-06-04T04:00:39.046Z,102441.06
2023-06-04T04:03:05.684Z,102461.50
2023-06-04T04:05:32.296Z,102462.75
2023-06-04T04:07:58.782Z,102462.50
2023-06-04T04:10:25.293Z,102457.66
2023-06-04T04:12:52.704Z,102457.38
2023-06-04T04:15:19.240Z,102462.50
2023-06-04T04:17:45.723Z,102469.00
2023-06-04T04:20:12.354Z,102465.34
2023-06-04T04:22:42.072Z,102450.88
2023-06-04T04:25:09.757Z,102429.91
2023-06-04T04:27:39.785Z,102455.56
2023-06-04T04:30:07.866Z,102465.91
2023-06-04T04:32:34.352Z,102458.00
2023-06-04T04:35:01.594Z,102459.41
2023-06-04T04:37:28.229Z,102461.97
2023-06-04T04:39:54.687Z,102468.53
2023-06-04T04:42:21.256Z,102462.69
2023-06-04T04:44:48.409Z,102455.06
2023-06-04T04:47:16.048Z,102451.25
2023-06-04T04:49:43.017Z,102452.66
2023-06-04T04:52:09.733Z,102463.97
2023-06-04T04:54:36.227Z,102436.03
2023-06-04T04:57:13.530Z,102451.75
2023-06-04T04:59:40.612Z,102463.06
2023-06-04T05:02:07.310Z,102463.59
2023-06-04T05:04:34.087Z,102453.66
2023-06-04T05:07:00.624Z,102455.72
2023-06-04T05:09:27.081Z,102455.69
2023-06-04T05:11:53.537Z,102462.94
2023-06-04T05:14:20.030Z,102468.41
2023-06-04T05:16:46.717Z,102461.41
2023-06-04T05:19:13.279Z,102455.00
2023-06-04T05:21:40.378Z,102455.09
2023-06-04T05:24:07.119Z,102460.03
2023-06-04T05:26:34.207Z,102463.88
2023-06-04T05:29:01.116Z,102461.84
2023-06-04T05:31:27.895Z,102456.56
2023-06-04T05:33:54.470Z,102447.97
2023-06-04T05:36:21.169Z,102459.66
2023-06-04T05:38:47.694Z,102453.84
2023-06-04T05:41:14.213Z,102460.09
2023-06-04T05:43:40.706Z,102461.44
2023-06-04T05:46:08.947Z,102464.78
2023-06-04T05:48:35.460Z,102466.44
2023-06-04T05:51:02.059Z,102461.91
2023-06-04T05:53:28.551Z,102468.94
2023-06-04T05:55:55.026Z,102464.94
2023-06-04T05:58:21.612Z,102461.75
2023-06-04T06:00:49.790Z,102472.09
2023-06-04T06:03:17.793Z,102475.22
2023-06-04T06:05:44.649Z,102471.47
2023-06-04T06:08:11.418Z,102472.09
2023-06-04T06:10:38.410Z,102479.88
2023-06-04T06:13:04.926Z,102447.69
2023-06-04T06:15:31.427Z,102476.84
2023-06-04T06:17:58.054Z,102474.44
2023-06-04T06:20:24.993Z,102488.44
2023-06-04T06:22:52.379Z,102484.75
2023-06-04T06:25:18.919Z,102476.81
2023-06-04T06:27:46.019Z,102485.66
2023-06-04T06:30:13.316Z,102477.50
2023-06-04T06:32:39.786Z,102486.84
2023-06-04T06:35:06.697Z,102477.00
2023-06-04T06:37:33.190Z,102474.06
2023-06-04T06:39:59.688Z,102485.63
2023-06-04T06:42:26.292Z,102485.94
2023-06-04T06:44:52.780Z,102481.16
2023-06-04T06:47:19.351Z,102487.13
2023-06-04T06:49:45.883Z,102473.72
2023-06-04T06:52:12.535Z,102478.03
2023-06-04T06:54:39.027Z,102471.03
2023-06-04T06:57:09.786Z,102475.09
2023-06-04T06:59:36.983Z,102473.88
2023-06-04T07:02:03.776Z,102480.31
2023-06-04T07:04:30.343Z,102478.53
2023-06-04T07:06:56.849Z,102482.97
2023-06-04T07:09:23.301Z,102479.31
2023-06-04T07:11:49.782Z,102463.03
2023-06-04T07:14:16.273Z,102468.25
2023-06-04T07:16:42.831Z,102478.91
2023-06-04T07:19:09.347Z,102479.84
2023-06-04T07:21:35.822Z,102470.94
2023-06-04T07:24:02.448Z,102468.78
2023-06-04T07:26:33.402Z,102467.97
2023-06-04T07:29:01.484Z,102465.41
2023-06-04T07:31:28.113Z,102468.06
2023-06-04T07:33:54.663Z,102469.63
2023-06-04T07:36:21.773Z,102470.41
2023-06-04T07:38:48.263Z,102471.84
2023-06-04T07:41:14.766Z,102476.97
2023-06-04T07:43:41.790Z,102477.56
2023-06-04T07:46:08.462Z,102463.38
2023-06-04T07:48:34.970Z,102473.47
2023-06-04T07:51:03.507Z,102474.09
2023-06-04T07:53:29.970Z,102455.88
2023-06-04T07:55:58.010Z,102478.97
2023-06-04T07:58:24.532Z,102457.41
2023-06-04T08:00:51.172Z,102465.34
2023-06-04T08:03:17.734Z,102469.19
2023-06-04T08:05:44.295Z,102487.59
2023-06-04T08:08:10.815Z,102485.53
2023-06-04T08:10:37.390Z,102472.16
2023-06-04T08:13:03.868Z,102488.31
2023-06-04T08:15:30.789Z,102482.75
2023-06-04T08:17:57.805Z,102491.88
2023-06-04T08:20:27.303Z,102481.56
2023-06-04T08:22:54.022Z,102484.63
2023-06-04T08:25:20.501Z,102483.22
2023-06-04T08:27:47.022Z,102477.88
2023-06-04T08:30:13.635Z,102453.00
2023-06-04T08:32:41.304Z,102484.13
2023-06-04T08:35:08.680Z,102480.69
2023-06-04T08:37:35.148Z,102475.97
2023-06-04T08:40:01.585Z,102473.25
2023-06-04T08:42:31.903Z,102467.81
2023-06-04T08:44:58.987Z,102473.91
2023-06-04T08:47:29.830Z,102452.09
2023-06-04T08:50:00.709Z,102469.28
2023-06-04T08:52:28.434Z,102465.66
2023-06-04T08:54:55.887Z,102459.38
2023-06-04T08:57:22.670Z,102469.06
2023-06-04T08:59:49.533Z,102469.06
2023-06-04T09:02:16.355Z,102468.66
2023-06-04T09:04:46.932Z,102464.41
2023-06-04T09:07:14.808Z,102466.31
2023-06-04T09:09:43.010Z,102472.81
2023-06-04T09:12:19.460Z,102461.75
2023-06-04T09:14:46.209Z,102465.53
2023-06-04T09:17:12.656Z,102465.69
2023-06-04T09:19:39.124Z,102447.69
2023-06-04T09:22:06.290Z,102458.00
2023-06-04T09:24:51.198Z,102470.34
2023-06-04T09:27:21.489Z,102458.25
2023-06-04T09:29:55.553Z,102462.66
2023-06-04T09:32:28.970Z,102430.50
2023-06-04T09:34:58.362Z,102466.25
2023-06-04T09:37:25.640Z,102461.56
2023-06-04T09:39:57.781Z,102471.38
2023-06-04T09:42:24.765Z,102457.94
2023-06-04T09:44:51.506Z,102471.75
2023-06-04T09:47:18.108Z,102475.19
2023-06-04T09:49:46.160Z,102474.31
2023-06-04T09:52:13.814Z,102463.31
2023-06-04T09:54:42.716Z,102460.41
2023-06-04T09:57:19.641Z,102466.09
2023-06-04T09:59:47.689Z,102446.06
2023-06-04T10:02:14.908Z,102444.63
2023-06-04T10:04:43.745Z,102447.78
2023-06-04T10:07:11.530Z,102468.28
2023-06-04T10:09:46.578Z,102456.91
2023-06-04T10:12:17.749Z,102460.66
2023-06-04T10:14:56.416Z,102458.31
2023-06-04T10:17:26.110Z,102461.06
2023-06-04T10:19:55.306Z,102457.50
2023-06-04T10:22:22.161Z,102435.44
2023-06-04T10:24:49.016Z,102453.84
2023-06-04T10:27:18.736Z,102463.41
2023-06-04T10:29:47.151Z,102463.84
2023-06-04T10:32:14.208Z,102454.69
2023-06-04T10:34:41.424Z,102451.84
2023-06-04T10:37:07.962Z,102453.31
2023-06-04T10:39:34.439Z,102450.13
2023-06-04T10:42:06.281Z,102457.91
2023-06-04T10:44:44.401Z,102451.94
2023-06-04T10:47:23.170Z,102456.53
2023-06-04T10:49:54.594Z,102459.22
2023-06-04T10:52:22.448Z,102449.47
2023-06-04T10:54:49.974Z,102445.03
2023-06-04T10:57:17.990Z,102453.03
2023-06-04T11:00:01.645Z,102434.31
2023-06-04T11:02:28.426Z,102476.34
2023-06-04T11:05:11.013Z,102449.63
2023-06-04T11:07:50.001Z,102457.00
2023-06-04T11:10:18.231Z,102455.97
2023-06-04T11:12:51.408Z,102444.66
2023-06-04T11:15:18.157Z,102453.59
2023-06-04T11:17:59.508Z,102447.75
2023-06-04T11:20:26.252Z,102436.09
2023-06-04T11:23:00.846Z,102430.06
2023-06-04T11:25:29.837Z,102427.91
2023-06-04T11:27:57.345Z,102406.44
2023-06-04T11:30:24.631Z,102421.75
2023-06-04T11:32:51.430Z,102403.91
2023-06-04T11:35:17.947Z,102418.53
2023-06-04T11:37:54.699Z,102406.59
2023-06-04T11:40:21.541Z,102403.94
2023-06-04T11:42:49.361Z,102415.47
2023-06-04T11:45:17.298Z,102403.06
2023-06-04T11:47:50.928Z,102404.22
2023-06-04T11:50:17.690Z,102410.78
2023-06-04T11:52:44.465Z,102418.59
2023-06-04T11:55:14.118Z,102419.81
2023-06-04T11:57:41.315Z,102393.13
2023-06-04T12:00:11.660Z,102422.22
2023-06-04T12:02:38.942Z,102421.22
2023-06-04T12:05:15.822Z,102419.91
2023-06-04T12:07:42.692Z,102424.03
2023-06-04T12:10:09.884Z,102429.56
2023-06-04T12:12:36.495Z,102414.69
2023-06-04T12:15:03.395Z,102414.28
2023-06-04T12:17:30.078Z,102428.38
2023-06-04T12:19:57.740Z,102425.09
2023-06-04T12:22:24.291Z,102420.22
2023-06-04T12:24:57.236Z,102425.63
2023-06-04T12:27:26.614Z,102423.84
2023-06-04T12:30:01.278Z,102409.34
2023-06-04T12:32:28.816Z,102382.78
2023-06-04T12:34:56.355Z,102388.69
2023-06-04T12:37:26.387Z,102403.25
2023-06-04T12:39:52.990Z,102410.78
2023-06-04T12:42:21.315Z,102411.34
2023-06-04T12:44:47.803Z,102406.75
2023-06-04T12:47:14.318Z,102412.91
2023-06-04T12:49:40.828Z,102416.75
2023-06-04T12:52:07.307Z,102413.00
2023-06-04T12:54:33.837Z,102413.44
2023-06-04T12:57:00.809Z,102418.97
2023-06-04T12:59:28.659Z,102414.97
2023-06-04T13:01:56.228Z,102416.06
2023-06-04T13:04:24.729Z,102394.63
2023-06-04T13:06:54.166Z,102403.91
2023-06-04T13:09:21.715Z,102416.50
2023-06-04T13:11:48.193Z,102400.09
2023-06-04T13:14:14.821Z,102404.81
2023-06-04T13:16:41.922Z,102413.88
2023-06-04T13:19:08.917Z,102402.97
2023-06-04T13:21:36.563Z,102399.88
2023-06-04T13:24:03.408Z,102402.81
2023-06-04T13:26:30.358Z,102401.75
2023-06-04T13:28:56.846Z,102390.22
2023-06-04T13:31:23.426Z,102408.97
2023-06-04T13:33:49.940Z,102407.88
2023-06-04T13:36:16.508Z,102400.78
2023-06-04T13:38:44.419Z,102402.72
2023-06-04T13:41:11.217Z,102409.69
2023-06-04T13:43:37.844Z,102400.28
2023-06-04T13:46:04.813Z,102402.59
2023-06-04T13:48:31.329Z,102407.28
2023-06-04T13:50:57.818Z,102413.31
2023-06-04T13:53:24.320Z,102408.25
2023-06-04T13:55:51.685Z,102420.38
2023-06-04T13:58:18.160Z,102419.88
2023-06-04T14:00:44.693Z,102417.56
2023-06-04T14:03:11.263Z,102416.19
2023-06-04T14:05:37.839Z,102412.06
2023-06-04T14:08:04.337Z,102410.44
2023-06-04T14:10:30.911Z,102412.63
2023-06-04T14:12:57.379Z,102422.34
2023-06-04T14:15:24.070Z,102427.75
2023-06-04T14:17:50.691Z,102428.53
2023-06-04T14:20:17.189Z,102418.19
2023-06-04T14:22:43.853Z,102417.97
2023-06-04T14:25:10.748Z,102426.66
2023-06-04T14:27:37.329Z,102423.13
2023-06-04T14:30:04.953Z,102416.69
2023-06-04T14:32:31.813Z,102418.81
2023-06-04T14:34:58.774Z,102404.22
2023-06-04T14:37:25.508Z,102409.75
2023-06-04T14:39:52.031Z,102424.88
2023-06-04T14:42:19.693Z,102422.50
2023-06-04T14:44:46.860Z,102424.56
2023-06-04T14:47:13.333Z,102430.91
2023-06-04T14:49:39.906Z,102416.41
2023-06-04T14:52:06.466Z,102423.84
2023-06-04T14:54:35.072Z,102403.91
2023-06-04T14:57:02.104Z,102407.28
2023-06-04T14:59:29.354Z,102423.78
2023-06-04T15:01:56.089Z,102423.19
2023-06-04T15:04:23.667Z,102397.50
2023-06-04T15:06:50.856Z,102440.81
2023-06-04T15:09:17.344Z,102442.22
2023-06-04T15:11:43.879Z,102403.84
2023-06-04T15:14:10.544Z,102428.59
2023-06-04T15:16:37.116Z,102429.44
2023-06-04T15:19:03.737Z,102435.97
2023-06-04T15:21:30.412Z,102410.56
2023-06-04T15:23:56.960Z,102423.63
2023-06-04T15:26:25.122Z,102430.75
2023-06-04T15:28:51.676Z,102426.13
2023-06-04T15:31:18.123Z,102423.22
2023-06-04T15:33:44.678Z,102407.97
2023-06-04T15:36:11.614Z,102432.94
2023-06-04T15:38:38.045Z,102433.00
2023-06-04T15:41:04.521Z,102433.34
2023-06-04T15:43:31.013Z,102433.03
2023-06-04T15:45:57.575Z,102442.28
2023-06-04T15:48:24.092Z,102447.03
2023-06-04T15:50:50.893Z,102449.06
2023-06-04T15:53:18.392Z,102419.66
2023-06-04T15:55:45.997Z,102448.16
2023-06-04T15:58:12.536Z,102426.91
2023-06-04T16:00:38.987Z,102425.56
2023-06-04T16:03:05.520Z,102438.00
2023-06-04T16:05:32.147Z,102435.78
2023-06-04T16:07:58.636Z,102438.72
2023-06-04T16:10:25.118Z,102420.59
2023-06-04T16:12:51.666Z,102421.50
2023-06-04T16:15:18.141Z,102441.25
2023-06-04T16:17:48.092Z,102442.94
2023-06-04T16:20:16.122Z,102450.13
2023-06-04T16:22:42.834Z,102430.94
2023-06-04T16:25:09.579Z,102441.06
2023-06-04T16:27:36.522Z,102427.38
2023-06-04T16:30:05.217Z,102430.31
2023-06-04T16:32:31.991Z,102432.00
2023-06-04T16:34:58.688Z,102432.13
2023-06-04T16:37:25.220Z,102431.97
2023-06-04T16:39:51.720Z,102436.97
2023-06-04T16:42:18.254Z,102426.25
2023-06-04T16:44:44.792Z,102433.19
2023-06-04T16:47:11.335Z,102431.47
2023-06-04T16:49:37.836Z,102411.19
2023-06-04T16:52:05.306Z,102430.91
2023-06-04T16:54:31.856Z,102432.38
2023-06-04T16:56:59.455Z,102436.13
2023-06-04T16:59:31.187Z,102435.47
2023-06-04T17:01:58.352Z,102443.19
2023-06-04T17:04:25.056Z,102441.88
2023-06-04T17:06:51.672Z,102444.56
2023-06-04T17:09:18.231Z,102450.50
2023-06-04T17:11:44.902Z,102447.44
2023-06-04T17:14:11.427Z,102442.78
2023-06-04T17:16:37.961Z,102438.31
2023-06-04T17:19:04.577Z,102426.41
2023-06-04T17:21:31.045Z,102445.69
2023-06-04T17:24:00.309Z,102449.69
2023-06-04T17:26:28.198Z,102437.44
2023-06-04T17:28:54.831Z,102440.63
2023-06-04T17:31:23.783Z,102441.94
2023-06-04T17:33:51.692Z,102447.72
2023-06-04T17:36:20.829Z,102440.44
2023-06-04T17:38:50.653Z,102430.75
2023-06-04T17:41:17.147Z,102432.75
2023-06-04T17:43:43.772Z,102440.28
2023-06-04T17:46:10.698Z,102446.34
2023-06-04T17:48:37.811Z,102447.09
2023-06-04T17:51:06.844Z,102445.44
2023-06-04T17:53:33.308Z,102450.09
2023-06-04T17:56:00.292Z,102447.84
2023-06-04T17:58:26.988Z,102444.47
2023-06-04T18:00:53.677Z,102459.59
2023-06-04T18:03:20.348Z,102457.03
2023-06-04T18:05:47.010Z,102465.31
2023-06-04T18:08:13.611Z,102437.09
2023-06-04T18:10:40.979Z,102460.34
2023-06-04T18:13:07.481Z,102458.72
2023-06-04T18:15:34.265Z,102463.47
2023-06-04T18:18:01.176Z,102441.59
2023-06-04T18:20:27.680Z,102465.31
2023-06-04T18:22:54.146Z,102457.22
2023-06-04T18:25:20.736Z,102470.78
2023-06-04T18:27:47.388Z,102470.22
2023-06-04T18:30:16.825Z,102468.44
2023-06-04T18:32:45.453Z,102433.63
2023-06-04T18:35:13.644Z,102464.50
2023-06-04T18:37:42.104Z,102457.50
2023-06-04T18:40:11.068Z,102467.84
2023-06-04T18:42:38.984Z,102461.38
2023-06-04T18:45:08.174Z,102464.38
2023-06-04T18:47:34.647Z,102440.34
2023-06-04T18:50:01.156Z,102452.94
2023-06-04T18:52:27.762Z,102465.28
2023-06-04T18:54:54.299Z,102434.44
2023-06-04T18:57:21.841Z,102478.31
2023-06-04T18:59:48.316Z,102474.97
2023-06-04T19:02:15.220Z,102471.88
2023-06-04T19:04:41.797Z,102464.09
2023-06-04T19:07:08.292Z,102449.91
2023-06-04T19:09:35.932Z,102457.72
2023-06-04T19:12:02.674Z,102471.25
2023-06-04T19:14:29.178Z,102473.28
2023-06-04T19:16:55.668Z,102473.28
2023-06-04T19:19:22.272Z,102475.66
2023-06-04T19:21:52.790Z,102459.91
2023-06-04T19:24:21.687Z,102483.44
2023-06-04T19:26:51.968Z,102471.56
2023-06-04T19:29:19.437Z,102482.22
2023-06-04T19:31:46.835Z,102458.97
2023-06-04T19:34:13.361Z,102489.38
2023-06-04T19:36:40.297Z,102492.88
2023-06-04T19:39:07.847Z,102496.31
2023-06-04T19:41:34.432Z,102501.00
2023-06-04T19:44:01.183Z,102505.44
2023-06-04T19:46:27.789Z,102509.75
2023-06-04T19:48:54.309Z,102501.00
2023-06-04T19:51:22.242Z,102501.75
2023-06-04T19:53:49.019Z,102500.22
2023-06-04T19:56:15.551Z,102508.38
2023-06-04T19:58:42.081Z,102507.22
2023-06-04T20:01:10.055Z,102500.34
2023-06-04T20:03:37.159Z,102509.09
2023-06-04T20:06:06.159Z,102504.16
2023-06-04T20:08:33.149Z,102495.06
2023-06-04T20:10:59.699Z,102504.38
2023-06-04T20:13:26.144Z,102508.19
2023-06-04T20:15:52.639Z,102515.13
2023-06-04T20:18:19.202Z,102514.13
2023-06-04T20:20:52.693Z,102516.34
2023-06-04T20:23:20.093Z,102513.50
2023-06-04T20:25:46.686Z,102514.34
2023-06-04T20:28:14.197Z,102514.81
2023-06-04T20:30:40.763Z,102520.53
2023-06-04T20:33:07.392Z,102534.06
2023-06-04T20:35:34.098Z,102526.50
2023-06-04T20:38:02.258Z,102535.22
2023-06-04T20:40:28.733Z,102543.00
2023-06-04T20:42:56.386Z,102537.84
2023-06-04T20:45:23.393Z,102548.28
2023-06-04T20:47:49.926Z,102554.22
2023-06-04T20:50:16.603Z,102544.34
2023-06-04T20:52:43.128Z,102557.47
2023-06-04T20:55:10.504Z,102551.38
2023-06-04T20:57:36.991Z,102545.41
2023-06-04T21:00:04.695Z,102555.44
2023-06-04T21:02:31.221Z,102553.22
2023-06-04T21:04:57.727Z,102559.69
2023-06-04T21:07:24.252Z,102551.38
2023-06-04T21:09:50.903Z,102560.09
2023-06-04T21:12:17.375Z,102562.19
2023-06-04T21:14:44.233Z,102557.38
2023-06-04T21:17:10.808Z,102559.44
2023-06-04T21:19:37.278Z,102522.63
2023-06-04T21:22:03.891Z,102554.91
2023-06-04T21:24:30.462Z,102547.88
2023-06-04T21:26:56.981Z,102560.63
2023-06-04T21:29:24.150Z,102561.31
2023-06-04T21:31:50.799Z,102561.38
2023-06-04T21:34:17.340Z,102559.28
2023-06-04T21:36:43.826Z,102559.22
2023-06-04T21:39:10.334Z,102559.63
2023-06-04T21:41:36.801Z,102525.50
2023-06-04T21:44:03.271Z,102555.16
2023-06-04T21:46:30.241Z,102528.78
2023-06-04T21:48:56.692Z,102570.31
2023-06-04T21:51:23.228Z,102565.78
2023-06-04T21:53:49.784Z,102566.50
2023-06-04T21:56:16.467Z,102569.09
2023-06-04T21:58:43.025Z,102563.72
2023-06-04T22:01:10.288Z,102568.97
2023-06-04T22:03:37.192Z,102529.41
2023-06-04T22:06:04.819Z,102563.47
2023-06-04T22:08:31.312Z,102551.84
2023-06-04T22:10:57.773Z,102559.06
2023-06-04T22:13:24.352Z,102551.28
2023-06-04T22:15:50.842Z,102562.34
2023-06-04T22:18:17.415Z,102558.38
2023-06-04T22:20:44.081Z,102551.88
2023-06-04T22:23:10.561Z,102554.81
2023-06-04T22:25:37.209Z,102559.50
2023-06-04T22:28:03.773Z,102549.88
2023-06-04T22:30:30.414Z,102560.34
2023-06-04T22:32:56.918Z,102537.53
2023-06-04T22:35:23.453Z,102547.75
2023-06-04T22:37:49.933Z,102553.44
2023-06-04T22:40:16.497Z,102542.38
2023-06-04T22:42:43.013Z,102507.78
2023-06-04T22:45:09.952Z,102527.66
2023-06-04T22:47:36.459Z,102545.38
2023-06-04T22:50:03.334Z,102549.91
2023-06-04T22:52:29.904Z,102555.84
2023-06-04T22:54:56.412Z,102546.50
2023-06-04T22:57:22.936Z,102517.16
2023-06-04T22:59:49.518Z,102553.28
2023-06-04T23:02:16.243Z,102559.97
2023-06-04T23:04:44.430Z,102553.88
2023-06-04T23:07:11.103Z,102554.16
2023-06-04T23:09:37.713Z,102557.41
2023-06-04T23:12:04.411Z,102556.44
2023-06-04T23:14:30.869Z,102547.63
2023-06-04T23:16:57.432Z,102554.00
2023-06-04T23:19:24.021Z,102551.31
2023-06-04T23:21:50.555Z,102558.66
2023-06-04T23:24:17.023Z,102567.75
2023-06-04T23:26:43.535Z,102558.38
2023-06-04T23:29:10.049Z,102561.53
2023-06-04T23:31:36.811Z,102577.53
2023-06-04T23:34:03.989Z,102584.75
2023-06-04T23:36:30.508Z,102555.19
2023-06-04T23:38:56.979Z,102560.91
2023-06-04T23:41:23.468Z,102583.06
2023-06-04T23:43:50.117Z,102563.50
2023-06-04T23:46:16.741Z,102577.38
2023-06-04T23:48:43.239Z,102585.91
2023-06-04T23:51:10.218Z,102590.44
2023-06-04T23:53:37.086Z,102575.69
2023-06-04T23:56:03.647Z,102580.81
2023-06-04T23:58:30.158Z,102586.31
